createdAt,value
2019-02-21T00:00:30.444Z,83.09
2019-02-21T00:03:03.023Z,83.47
2019-02-21T00:05:35.553Z,83.49
2019-02-21T00:08:11.095Z,84.30
2019-02-21T00:10:44.484Z,84.44
2019-02-21T00:13:19.840Z,84.54
2019-02-21T00:15:53.735Z,84.56
2019-02-21T00:18:26.446Z,84.82
2019-02-21T00:21:00.238Z,85.07
2019-02-21T00:23:33.083Z,85.21
2019-02-21T00:26:05.660Z,85.33
2019-02-21T00:28:38.575Z,85.45
2019-02-21T00:31:12.063Z,85.62
2019-02-21T00:33:44.811Z,85.81
2019-02-21T00:36:17.731Z,86.04
2019-02-21T00:38:50.327Z,86.01
2019-02-21T00:41:22.926Z,86.01
2019-02-21T00:43:55.835Z,86.00
2019-02-21T00:46:29.431Z,86.00
2019-02-21T00:49:02.311Z,86.02
2019-02-21T00:51:36.317Z,86.06
2019-02-21T00:54:10.446Z,86.13
2019-02-21T00:56:43.870Z,85.97
2019-02-21T00:59:16.889Z,86.08
2019-02-21T01:01:49.416Z,86.25
2019-02-21T01:04:24.313Z,86.28
2019-02-21T01:06:57.438Z,86.26
2019-02-21T01:09:30.512Z,86.34
2019-02-21T01:12:03.030Z,86.27
2019-02-21T01:14:35.939Z,86.41
2019-02-21T01:17:08.791Z,86.51
2019-02-21T01:19:41.789Z,86.60
2019-02-21T01:22:15.418Z,86.65
2019-02-21T01:24:48.097Z,86.74
2019-02-21T01:27:20.677Z,86.73
2019-02-21T01:29:53.822Z,86.89
2019-02-21T01:32:26.370Z,87.04
2019-02-21T01:34:59.282Z,87.03
2019-02-21T01:37:33.323Z,86.98
2019-02-21T01:40:06.424Z,87.06
2019-02-21T01:42:38.928Z,87.15
2019-02-21T01:45:14.826Z,87.54
2019-02-21T01:47:47.498Z,87.91
2019-02-21T01:50:20.377Z,88.43
2019-02-21T01:52:53.227Z,88.64
2019-02-21T01:55:25.790Z,88.57
2019-02-21T01:57:58.335Z,88.75
2019-02-21T02:00:32.459Z,89.00
2019-02-21T02:03:05.411Z,89.19
2019-02-21T02:05:37.877Z,89.07
2019-02-21T02:08:11.325Z,89.18
2019-02-21T02:10:44.205Z,89.14
2019-02-21T02:13:24.017Z,89.03
2019-02-21T02:15:58.546Z,89.05
2019-02-21T02:18:31.039Z,88.93
2019-02-21T02:21:04.487Z,88.70
2019-02-21T02:23:37.446Z,88.53
2019-02-21T02:26:10.151Z,88.48
2019-02-21T02:28:43.808Z,88.48
2019-02-21T02:31:22.785Z,88.42
2019-02-21T02:33:56.375Z,88.60
2019-02-21T02:36:29.709Z,88.74
2019-02-21T02:39:04.802Z,88.79
2019-02-21T02:41:37.358Z,88.79
2019-02-21T02:44:10.976Z,88.58
2019-02-21T02:46:44.618Z,88.17
2019-02-21T02:49:17.163Z,87.82
2019-02-21T02:51:49.739Z,87.45
2019-02-21T02:54:24.291Z,87.16
2019-02-21T02:56:58.612Z,86.85
2019-02-21T02:59:40.312Z,86.57
2019-02-21T03:02:14.446Z,86.22
2019-02-21T03:04:47.004Z,85.76
2019-02-21T03:07:20.670Z,85.46
2019-02-21T03:09:56.868Z,85.39
2019-02-21T03:12:30.507Z,85.18
2019-02-21T03:15:06.601Z,84.95
2019-02-21T03:17:39.757Z,84.78
2019-02-21T03:20:12.314Z,84.59
2019-02-21T03:22:44.876Z,84.48
2019-02-21T03:25:17.349Z,84.48
2019-02-21T03:27:51.443Z,84.47
2019-02-21T03:30:24.044Z,84.58
2019-02-21T03:32:56.525Z,84.61
2019-02-21T03:35:30.669Z,84.53
2019-02-21T03:38:03.219Z,84.40
2019-02-21T03:40:35.924Z,84.24
2019-02-21T03:43:08.768Z,84.16
2019-02-21T03:45:41.484Z,84.12
2019-02-21T03:48:16.378Z,84.15
2019-02-21T03:50:49.338Z,84.12
2019-02-21T03:53:28.556Z,84.13
2019-02-21T03:56:01.071Z,84.21
2019-02-21T03:58:34.389Z,84.30
2019-02-21T04:01:07.125Z,84.58
2019-02-21T04:03:40.699Z,84.64
2019-02-21T04:06:13.272Z,84.48
2019-02-21T04:08:45.986Z,84.37
2019-02-21T04:11:21.134Z,84.30
2019-02-21T04:13:55.713Z,84.24
2019-02-21T04:16:28.285Z,84.22
2019-02-21T04:19:00.868Z,84.30
2019-02-21T04:21:33.864Z,84.28
2019-02-21T04:24:06.605Z,84.18
2019-02-21T04:26:39.251Z,84.15
2019-02-21T04:29:12.138Z,84.11
2019-02-21T04:31:44.668Z,83.96
2019-02-21T04:34:17.693Z,83.93
2019-02-21T04:36:51.545Z,83.84
2019-02-21T04:39:25.376Z,83.85
2019-02-21T04:41:58.143Z,83.84
2019-02-21T04:44:30.774Z,83.84
2019-02-21T04:47:03.230Z,84.02
2019-02-21T04:49:37.549Z,84.13
2019-02-21T04:52:10.044Z,84.32
2019-02-21T04:54:42.840Z,84.88
2019-02-21T04:57:16.211Z,85.45
2019-02-21T04:59:50.211Z,86.15
2019-02-21T05:02:29.211Z,86.15
2019-02-21T05:05:03.157Z,85.92
2019-02-21T05:07:37.377Z,85.77
2019-02-21T05:10:10.291Z,85.41
2019-02-21T05:12:45.025Z,86.26
2019-02-21T05:15:16.798Z,86.82
2019-02-21T05:17:49.776Z,86.56
2019-02-21T05:20:22.186Z,86.38
2019-02-21T05:22:55.174Z,87.43
2019-02-21T05:25:28.139Z,87.97
2019-02-21T05:28:07.131Z,88.06
2019-02-21T05:30:40.452Z,87.94
2019-02-21T05:33:18.574Z,87.89
2019-02-21T05:36:00.410Z,88.18
2019-02-21T05:38:44.242Z,88.40
2019-02-21T05:41:22.522Z,88.57
2019-02-21T05:44:11.686Z,88.80
2019-02-21T05:47:03.830Z,88.78
2019-02-21T05:49:59.365Z,88.85
2019-02-21T05:52:39.686Z,88.90
2019-02-21T05:55:24.535Z,89.11
2019-02-21T05:58:17.592Z,89.35
2019-02-21T06:01:12.319Z,89.63
2019-02-21T06:03:51.439Z,89.86
2019-02-21T06:06:31.988Z,89.94
2019-02-21T06:09:16.441Z,90.13
2019-02-21T06:11:56.806Z,90.33
2019-02-21T06:14:46.418Z,90.61
2019-02-21T06:17:40.663Z,90.63
2019-02-21T06:20:46.620Z,90.99
2019-02-21T06:23:36.164Z,91.31
2019-02-21T06:26:17.551Z,91.56
2019-02-21T06:29:10.437Z,91.76
2019-02-21T06:31:58.492Z,91.74
2019-02-21T06:34:31.750Z,91.96
2019-02-21T06:37:04.959Z,92.27
2019-02-21T06:39:39.283Z,92.77
2019-02-21T06:42:11.959Z,92.96
2019-02-21T06:44:44.721Z,92.54
2019-02-21T06:47:17.325Z,91.80
2019-02-21T06:49:49.874Z,91.85
2019-02-21T06:52:23.106Z,92.23
2019-02-21T06:54:55.567Z,93.01
2019-02-21T06:57:28.523Z,93.58
2019-02-21T07:00:05.354Z,94.04
2019-02-21T07:02:38.048Z,94.45
2019-02-21T07:05:10.663Z,94.93
2019-02-21T07:07:47.506Z,95.08
2019-02-21T07:10:19.907Z,95.15
2019-02-21T07:12:54.722Z,95.34
2019-02-21T07:15:30.669Z,95.17
2019-02-21T07:18:06.648Z,95.01
2019-02-21T07:20:41.621Z,94.82
2019-02-21T07:23:15.114Z,94.67
2019-02-21T07:25:59.158Z,94.49
2019-02-21T07:28:31.941Z,94.48
2019-02-21T07:31:04.428Z,94.36
2019-02-21T07:33:37.854Z,94.17
2019-02-21T07:36:11.218Z,93.92
2019-02-21T07:38:44.156Z,93.70
2019-02-21T07:41:18.639Z,93.29
2019-02-21T07:43:52.278Z,92.99
2019-02-21T07:46:28.003Z,92.28
2019-02-21T07:49:02.135Z,91.66
2019-02-21T07:51:35.977Z,91.12
2019-02-21T07:54:09.713Z,89.87
2019-02-21T07:56:44.165Z,89.28
2019-02-21T07:59:16.726Z,88.29
2019-02-21T08:01:49.170Z,87.54
2019-02-21T08:04:24.655Z,87.08
2019-02-21T08:06:57.154Z,86.69
2019-02-21T08:09:32.595Z,86.43
2019-02-21T08:12:06.500Z,86.08
2019-02-21T08:14:43.255Z,85.63
2019-02-21T08:17:17.797Z,85.18
2019-02-21T08:19:52.862Z,84.65
2019-02-21T08:22:25.988Z,84.30
2019-02-21T08:24:58.504Z,84.08
2019-02-21T08:27:31.347Z,83.73
2019-02-21T08:30:09.667Z,83.74
2019-02-21T08:32:48.251Z,83.84
2019-02-21T08:35:20.875Z,83.86
2019-02-21T08:37:54.943Z,83.83
2019-02-21T08:40:28.957Z,83.67
2019-02-21T08:43:08.551Z,82.22
2019-02-21T08:45:41.844Z,80.67
2019-02-21T08:48:14.488Z,79.63
2019-02-21T08:50:50.665Z,78.99
2019-02-21T08:53:28.174Z,78.48
2019-02-21T08:56:04.537Z,78.48
2019-02-21T08:58:37.467Z,78.23
2019-02-21T09:01:11.282Z,77.83
2019-02-21T09:03:44.001Z,77.60
2019-02-21T09:06:19.051Z,76.91
2019-02-21T09:08:52.971Z,76.94
2019-02-21T09:11:25.607Z,76.45
2019-02-21T09:13:59.647Z,76.19
2019-02-21T09:16:33.639Z,76.33
2019-02-21T09:19:06.181Z,76.36
2019-02-21T09:21:41.079Z,76.43
2019-02-21T09:24:26.814Z,76.49
2019-02-21T09:27:09.143Z,76.67
2019-02-21T09:29:42.398Z,76.89
2019-02-21T09:32:16.096Z,76.43
2019-02-21T09:34:50.345Z,76.19
2019-02-21T09:37:27.761Z,75.70
2019-02-21T09:40:01.587Z,75.24
2019-02-21T09:42:36.330Z,74.94
2019-02-21T09:45:15.786Z,74.53
2019-02-21T09:47:49.226Z,73.95
2019-02-21T09:50:21.751Z,74.07
2019-02-21T09:52:57.848Z,74.15
2019-02-21T09:55:30.535Z,73.63
2019-02-21T09:58:03.124Z,71.82
2019-02-21T10:00:37.568Z,70.88
2019-02-21T10:03:10.994Z,70.13
2019-02-21T10:05:43.571Z,68.26
2019-02-21T10:08:16.969Z,66.79
2019-02-21T10:10:52.776Z,65.21
2019-02-21T10:13:28.618Z,64.42
2019-02-21T10:16:05.053Z,64.83
2019-02-21T10:18:38.332Z,66.11
2019-02-21T10:21:10.875Z,67.10
2019-02-21T10:23:46.562Z,67.95
2019-02-21T10:26:19.192Z,67.15
2019-02-21T10:28:53.364Z,66.98
2019-02-21T10:31:26.723Z,67.80
2019-02-21T10:34:06.702Z,68.24
2019-02-21T10:36:42.342Z,68.94
2019-02-21T10:39:17.165Z,69.90
2019-02-21T10:41:51.498Z,70.41
2019-02-21T10:44:24.153Z,70.78
2019-02-21T10:46:58.011Z,70.88
2019-02-21T10:49:31.309Z,70.86
2019-02-21T10:52:03.913Z,70.78
2019-02-21T10:54:48.257Z,70.41
2019-02-21T10:57:20.782Z,69.35
2019-02-21T10:59:53.379Z,67.95
2019-02-21T11:02:27.811Z,66.23
2019-02-21T11:05:01.953Z,66.25
2019-02-21T11:07:35.210Z,65.83
2019-02-21T11:10:09.599Z,65.51
2019-02-21T11:12:42.901Z,64.32
2019-02-21T11:15:17.422Z,63.28
2019-02-21T11:17:51.540Z,62.57
2019-02-21T11:20:24.438Z,63.67
2019-02-21T11:22:57.112Z,64.86
2019-02-21T11:25:32.581Z,65.94
2019-02-21T11:28:08.716Z,66.96
2019-02-21T11:30:52.283Z,67.61
2019-02-21T11:33:26.952Z,66.37
2019-02-21T11:36:00.446Z,64.74
2019-02-21T11:38:34.440Z,64.28
2019-02-21T11:41:08.270Z,64.49
2019-02-21T11:43:41.605Z,65.54
2019-02-21T11:46:14.844Z,65.40
2019-02-21T11:48:47.825Z,66.31
2019-02-21T11:51:20.359Z,65.75
2019-02-21T11:53:54.351Z,65.62
2019-02-21T11:56:28.744Z,64.91
2019-02-21T11:59:03.868Z,64.78
2019-02-21T12:01:39.638Z,64.58
2019-02-21T12:04:16.145Z,64.41
2019-02-21T12:06:48.841Z,63.99
2019-02-21T12:09:21.851Z,63.79
2019-02-21T12:11:57.030Z,63.45
2019-02-21T12:14:31.771Z,63.30
2019-02-21T12:17:06.266Z,61.21
2019-02-21T12:19:42.653Z,61.24
2019-02-21T12:22:19.038Z,60.79
2019-02-21T12:24:54.163Z,61.35
2019-02-21T12:27:27.886Z,61.55
2019-02-21T12:30:00.612Z,61.99
2019-02-21T12:32:35.126Z,61.69
2019-02-21T12:35:12.551Z,61.18
2019-02-21T12:37:45.387Z,60.10
2019-02-21T12:40:18.799Z,59.91
2019-02-21T12:42:53.829Z,58.87
2019-02-21T12:45:29.864Z,58.49
2019-02-21T12:48:04.395Z,58.42
2019-02-21T12:50:44.288Z,58.98
2019-02-21T12:53:21.693Z,59.04
2019-02-21T12:56:11.054Z,59.41
2019-02-21T12:58:46.679Z,59.23
2019-02-21T13:01:19.203Z,59.02
2019-02-21T13:03:52.229Z,58.11
2019-02-21T13:06:26.580Z,58.51
2019-02-21T13:09:00.231Z,58.09
2019-02-21T13:11:35.545Z,56.83
2019-02-21T13:14:11.542Z,55.19
2019-02-21T13:16:46.670Z,56.07
2019-02-21T13:19:21.589Z,57.06
2019-02-21T13:21:57.422Z,57.83
2019-02-21T13:24:30.638Z,58.79
2019-02-21T13:27:06.950Z,58.85
2019-02-21T13:29:41.750Z,58.27
2019-02-21T13:32:16.824Z,56.63
2019-02-21T13:34:50.469Z,56.28
2019-02-21T13:37:29.095Z,56.17
2019-02-21T13:40:05.852Z,56.04
2019-02-21T13:42:40.650Z,56.41
2019-02-21T13:45:17.809Z,56.37
2019-02-21T13:47:52.823Z,55.84
2019-02-21T13:50:31.161Z,56.51
2019-02-21T13:53:03.931Z,57.31
2019-02-21T13:55:39.111Z,58.60
2019-02-21T13:58:12.716Z,59.87
2019-02-21T14:00:46.166Z,60.37
2019-02-21T14:03:19.289Z,60.85
2019-02-21T14:06:02.997Z,61.23
2019-02-21T14:08:37.302Z,60.90
2019-02-21T14:11:10.537Z,61.09
2019-02-21T14:13:43.009Z,60.99
2019-02-21T14:16:18.181Z,59.15
2019-02-21T14:18:51.550Z,59.25
2019-02-21T14:21:25.588Z,59.21
2019-02-21T14:24:00.112Z,59.36
2019-02-21T14:26:33.020Z,59.50
2019-02-21T14:29:06.631Z,59.53
2019-02-21T14:31:39.279Z,59.90
2019-02-21T14:34:12.681Z,60.23
2019-02-21T14:36:47.237Z,60.39
2019-02-21T14:39:20.880Z,60.59
2019-02-21T14:41:54.601Z,60.98
2019-02-21T14:44:27.321Z,61.51
2019-02-21T14:47:00.583Z,61.70
2019-02-21T14:49:34.124Z,62.41
2019-02-21T14:52:09.761Z,62.41
2019-02-21T14:54:49.935Z,62.80
2019-02-21T14:57:23.596Z,63.30
2019-02-21T14:59:59.832Z,63.85
2019-02-21T15:02:37.732Z,63.80
2019-02-21T15:05:52.483Z,64.19
2019-02-21T15:08:27.359Z,64.45
2019-02-21T15:11:00.069Z,64.20
2019-02-21T15:13:42.652Z,63.91
2019-02-21T15:16:16.996Z,64.47
2019-02-21T15:18:55.356Z,64.47
2019-02-21T15:21:33.995Z,64.26
2019-02-21T15:24:07.634Z,64.27
2019-02-21T15:26:41.799Z,64.48
2019-02-21T15:29:15.570Z,64.65
2019-02-21T15:31:50.387Z,64.42
2019-02-21T15:34:27.179Z,64.70
2019-02-21T15:36:59.768Z,64.93
2019-02-21T15:39:35.297Z,65.11
2019-02-21T15:42:10.498Z,65.29
2019-02-21T15:44:45.265Z,65.55
2019-02-21T15:47:19.592Z,65.80
2019-02-21T15:49:52.458Z,66.05
2019-02-21T15:52:28.012Z,66.16
2019-02-21T15:55:11.869Z,66.35
2019-02-21T15:57:47.319Z,66.47
2019-02-21T16:00:21.832Z,66.67
2019-02-21T16:02:57.346Z,66.86
2019-02-21T16:05:31.687Z,66.94
2019-02-21T16:08:06.345Z,66.95
2019-02-21T16:10:46.318Z,67.12
2019-02-21T16:13:22.662Z,67.26
2019-02-21T16:15:58.609Z,67.24
2019-02-21T16:18:32.553Z,67.47
2019-02-21T16:21:09.108Z,67.70
2019-02-21T16:23:48.655Z,67.82
2019-02-21T16:26:24.661Z,68.02
2019-02-21T16:28:58.845Z,68.38
2019-02-21T16:31:31.727Z,68.82
2019-02-21T16:34:09.172Z,69.20
2019-02-21T16:36:43.640Z,69.29
2019-02-21T16:39:18.483Z,69.48
2019-02-21T16:41:52.972Z,69.60
2019-02-21T16:44:30.422Z,69.87
2019-02-21T16:47:05.766Z,70.01
2019-02-21T16:49:44.005Z,70.21
2019-02-21T16:52:18.278Z,70.41
2019-02-21T16:54:51.575Z,70.46
2019-02-21T16:57:25.556Z,70.81
2019-02-21T16:59:58.844Z,71.04
2019-02-21T17:02:34.359Z,71.34
2019-02-21T17:05:08.785Z,71.30
2019-02-21T17:07:44.697Z,71.51
2019-02-21T17:10:21.088Z,71.93
2019-02-21T17:12:55.485Z,72.06
2019-02-21T17:15:29.363Z,71.72
2019-02-21T17:18:03.731Z,70.97
2019-02-21T17:20:39.835Z,70.86
2019-02-21T17:23:22.529Z,70.90
2019-02-21T17:26:00.688Z,71.21
2019-02-21T17:28:41.510Z,72.17
2019-02-21T17:31:17.457Z,72.54
2019-02-21T17:33:53.399Z,72.59
2019-02-21T17:36:32.630Z,72.82
2019-02-21T17:39:10.559Z,73.00
2019-02-21T17:41:53.964Z,73.00
2019-02-21T17:44:31.748Z,72.81
2019-02-21T17:47:06.479Z,72.76
2019-02-21T17:49:44.641Z,72.91
2019-02-21T17:52:21.244Z,72.80
2019-02-21T17:54:55.563Z,72.44
2019-02-21T17:57:30.849Z,72.32
2019-02-21T18:00:17.116Z,72.42
2019-02-21T18:02:50.099Z,72.57
2019-02-21T18:05:22.845Z,72.66
2019-02-21T18:07:57.167Z,72.81
2019-02-21T18:10:30.393Z,72.91
2019-02-21T18:13:10.831Z,73.18
2019-02-21T18:15:47.270Z,73.40
2019-02-21T18:18:19.869Z,73.46
2019-02-21T18:20:57.070Z,73.41
2019-02-21T18:23:29.762Z,73.44
2019-02-21T18:26:17.100Z,73.79
2019-02-21T18:28:52.400Z,74.16
2019-02-21T18:31:26.610Z,74.65
2019-02-21T18:34:02.195Z,75.30
2019-02-21T18:36:42.071Z,75.80
2019-02-21T18:39:17.906Z,76.74
2019-02-21T18:41:51.999Z,77.77
2019-02-21T18:44:25.167Z,78.04
2019-02-21T18:47:00.527Z,78.63
2019-02-21T18:49:38.769Z,79.57
2019-02-21T18:52:19.657Z,79.85
2019-02-21T18:54:56.545Z,80.83
2019-02-21T18:57:29.958Z,81.94
2019-02-21T19:00:04.776Z,82.54
2019-02-21T19:02:37.457Z,82.76
2019-02-21T19:05:10.271Z,83.29
2019-02-21T19:07:43.019Z,83.83
2019-02-21T19:10:18.813Z,84.13
2019-02-21T19:12:53.793Z,84.44
2019-02-21T19:15:32.865Z,84.56
2019-02-21T19:18:11.046Z,84.66
2019-02-21T19:20:44.641Z,84.83
2019-02-21T19:23:20.168Z,85.12
2019-02-21T19:25:55.445Z,85.37
2019-02-21T19:28:29.408Z,85.85
2019-02-21T19:31:13.085Z,85.85
2019-02-21T19:33:49.157Z,85.98
2019-02-21T19:36:22.859Z,86.06
2019-02-21T19:38:57.934Z,86.28
2019-02-21T19:41:31.479Z,86.26
2019-02-21T19:44:09.179Z,86.20
2019-02-21T19:46:44.196Z,86.26
2019-02-21T19:49:20.174Z,86.31
2019-02-21T19:51:54.267Z,86.25
2019-02-21T19:54:26.975Z,86.07
2019-02-21T19:57:10.278Z,86.06
2019-02-21T19:59:53.905Z,86.16
2019-02-21T20:02:30.097Z,86.38
2019-02-21T20:05:06.636Z,86.44
2019-02-21T20:07:40.890Z,86.41
2019-02-21T20:10:19.030Z,86.37
2019-02-21T20:12:58.361Z,86.35
2019-02-21T20:15:34.912Z,86.40
2019-02-21T20:18:12.027Z,86.42
2019-02-21T20:20:46.809Z,86.32
2019-02-21T20:23:32.386Z,86.20
2019-02-21T20:26:17.712Z,86.10
2019-02-21T20:28:55.067Z,86.02
2019-02-21T20:31:29.814Z,85.81
2019-02-21T20:34:04.857Z,85.75
2019-02-21T20:36:50.468Z,85.85
2019-02-21T20:39:26.577Z,85.89
2019-02-21T20:42:01.164Z,85.97
2019-02-21T20:44:36.211Z,85.63
2019-02-21T20:47:10.791Z,85.26
2019-02-21T20:49:46.388Z,84.99
2019-02-21T20:52:21.341Z,84.87
2019-02-21T20:54:59.470Z,84.94
2019-02-21T20:57:35.832Z,84.94
2019-02-21T21:00:20.358Z,85.06
2019-02-21T21:02:54.559Z,85.11
2019-02-21T21:05:28.726Z,85.41
2019-02-21T21:08:08.619Z,86.50
2019-02-21T21:10:43.027Z,87.15
2019-02-21T21:13:17.776Z,87.70
2019-02-21T21:15:53.559Z,88.62
2019-02-21T21:18:28.361Z,89.19
2019-02-21T21:21:04.674Z,89.74
2019-02-21T21:23:37.328Z,90.13
2019-02-21T21:26:12.863Z,90.79
2019-02-21T21:28:46.983Z,91.42
2019-02-21T21:31:25.204Z,91.98
2019-02-21T21:34:02.760Z,92.69
2019-02-21T21:36:36.038Z,93.26
2019-02-21T21:39:12.677Z,93.71
2019-02-21T21:41:48.720Z,94.20
2019-02-21T21:44:23.133Z,94.59
2019-02-21T21:47:02.612Z,95.03
2019-02-21T21:49:39.821Z,95.60
2019-02-21T21:52:13.058Z,96.03
2019-02-21T21:54:51.053Z,96.41
2019-02-21T21:57:29.008Z,96.87
2019-02-21T22:00:06.794Z,97.36
2019-02-21T22:02:41.675Z,97.76
2019-02-21T22:05:14.362Z,98.41
2019-02-21T22:07:49.171Z,99.05
2019-02-21T22:10:22.943Z,99.59
2019-02-21T22:13:03.588Z,100.00
2019-02-21T22:15:37.831Z,100.00
2019-02-21T22:18:13.485Z,100.00
2019-02-21T22:20:46.169Z,100.00
2019-02-21T22:23:20.739Z,100.00
2019-02-21T22:25:59.158Z,100.00
2019-02-21T22:28:33.451Z,100.00
2019-02-21T22:31:17.730Z,100.00
2019-02-21T22:33:50.596Z,100.00
2019-02-21T22:36:27.210Z,100.00
2019-02-21T22:39:02.170Z,100.00
2019-02-21T22:41:40.243Z,100.00
2019-02-21T22:44:14.418Z,100.00
2019-02-21T22:46:50.337Z,100.00
2019-02-21T22:49:25.589Z,100.00
2019-02-21T22:52:02.208Z,100.00
2019-02-21T22:54:37.805Z,100.00
2019-02-21T22:57:10.369Z,100.00
2019-02-21T22:59:46.263Z,100.00
2019-02-21T23:02:21.118Z,100.00
2019-02-21T23:05:31.209Z,100.00
2019-02-21T23:08:51.338Z,100.00
2019-02-21T23:11:24.423Z,100.00
2019-02-21T23:14:00.232Z,100.00
2019-02-21T23:16:32.775Z,100.00
2019-02-21T23:19:07.738Z,100.00
2019-02-21T23:21:42.637Z,100.00
2019-02-21T23:24:17.327Z,100.00
2019-02-21T23:26:52.405Z,100.00
2019-02-21T23:29:26.913Z,100.00
2019-02-21T23:31:59.782Z,100.00
2019-02-21T23:34:37.509Z,100.00
2019-02-21T23:37:11.218Z,100.00
2019-02-21T23:39:44.180Z,100.00
2019-02-21T23:42:18.465Z,100.00
2019-02-21T23:44:51.687Z,100.00
2019-02-21T23:47:24.244Z,100.00
2019-02-21T23:49:58.535Z,100.00
2019-02-21T23:52:31.722Z,100.00
2019-02-21T23:55:04.800Z,100.00
2019-02-21T23:57:38.859Z,100.00
